createdAt,value
2023-02-17T00:00:25.305Z,5.00
2023-02-17T00:02:56.500Z,3.92
2023-02-17T00:05:24.716Z,3.45
2023-02-17T00:07:52.394Z,5.40
2023-02-17T00:10:24.977Z,4.85
2023-02-17T00:12:52.649Z,5.78
2023-02-17T00:15:20.326Z,5.07
2023-02-17T00:17:48.004Z,4.88
2023-02-17T00:20:15.677Z,5.18
2023-02-17T00:22:43.482Z,4.90
2023-02-17T00:25:11.225Z,5.60
2023-02-17T00:27:40.498Z,4.35
2023-02-17T00:30:09.093Z,5.38
2023-02-17T00:32:37.548Z,8.32
2023-02-17T00:35:05.797Z,4.47
2023-02-17T00:37:35.936Z,5.03
2023-02-17T00:40:03.948Z,8.05
2023-02-17T00:42:31.646Z,6.32
2023-02-17T00:45:00.773Z,4.72
2023-02-17T00:47:28.469Z,8.43
2023-02-17T00:49:56.189Z,6.80
2023-02-17T00:52:23.899Z,6.70
2023-02-17T00:54:51.796Z,9.27
2023-02-17T00:57:19.484Z,8.80
2023-02-17T00:59:47.155Z,7.90
2023-02-17T01:02:16.318Z,7.82
2023-02-17T01:04:44.056Z,3.97
2023-02-17T01:07:11.740Z,4.30
2023-02-17T01:09:39.445Z,8.00
2023-02-17T01:12:07.966Z,5.07
2023-02-17T01:14:35.835Z,4.00
2023-02-17T01:17:03.523Z,3.03
2023-02-17T01:19:32.593Z,5.18
2023-02-17T01:22:00.318Z,1.80
2023-02-17T01:24:28.742Z,3.45
2023-02-17T01:26:56.709Z,2.97
2023-02-17T01:29:24.392Z,2.65
2023-02-17T01:31:52.148Z,3.30
2023-02-17T01:34:19.866Z,3.72
2023-02-17T01:36:48.871Z,6.90
2023-02-17T01:39:16.609Z,3.28
2023-02-17T01:41:46.462Z,3.33
2023-02-17T01:44:15.872Z,5.57
2023-02-17T01:46:44.134Z,5.78
2023-02-17T01:49:17.842Z,5.75
2023-02-17T01:51:47.251Z,3.30
2023-02-17T01:54:18.715Z,5.20
2023-02-17T01:56:48.325Z,5.85
2023-02-17T01:59:18.512Z,2.50
2023-02-17T02:01:46.717Z,4.68
2023-02-17T02:04:16.821Z,7.43
2023-02-17T02:06:44.896Z,5.68
2023-02-17T02:09:16.842Z,5.45
2023-02-17T02:11:45.886Z,12.32
2023-02-17T02:14:14.090Z,7.40
2023-02-17T02:16:44.546Z,6.10
2023-02-17T02:19:19.519Z,5.15
2023-02-17T02:21:58.407Z,7.72
2023-02-17T02:24:31.333Z,7.65
2023-02-17T02:27:10.488Z,5.30
2023-02-17T02:29:57.904Z,10.10
2023-02-17T02:32:41.054Z,7.97
2023-02-17T02:35:11.032Z,8.90
2023-02-17T02:37:42.944Z,6.57
2023-02-17T02:40:12.265Z,5.80
2023-02-17T02:42:40.185Z,7.05
2023-02-17T02:45:08.557Z,8.32
2023-02-17T02:47:47.591Z,6.63
2023-02-17T02:50:17.477Z,6.18
2023-02-17T02:52:49.212Z,9.10
2023-02-17T02:55:19.519Z,8.15
2023-02-17T02:57:52.869Z,8.30
2023-02-17T03:00:24.009Z,8.18
2023-02-17T03:02:57.009Z,17.48
2023-02-17T03:05:27.844Z,5.68
2023-02-17T03:07:57.416Z,6.15
2023-02-17T03:10:25.236Z,8.68
2023-02-17T03:12:53.851Z,11.88
2023-02-17T03:15:24.795Z,7.13
2023-02-17T03:17:53.805Z,8.63
2023-02-17T03:20:22.116Z,10.57
2023-02-17T03:22:49.891Z,5.40
2023-02-17T03:25:17.922Z,6.35
2023-02-17T03:27:45.858Z,6.45
2023-02-17T03:30:14.350Z,9.02
2023-02-17T03:32:42.150Z,5.55
2023-02-17T03:35:11.174Z,6.35
2023-02-17T03:37:38.819Z,7.22
2023-02-17T03:40:07.516Z,8.07
2023-02-17T03:42:35.351Z,8.63
2023-02-17T03:45:03.109Z,7.45
2023-02-17T03:47:30.790Z,8.23
2023-02-17T03:49:58.547Z,7.18
2023-02-17T03:52:28.122Z,7.30
2023-02-17T03:54:55.827Z,5.70
2023-02-17T03:57:23.548Z,8.57
2023-02-17T03:59:51.237Z,6.60
2023-02-17T04:02:19.039Z,10.65
2023-02-17T04:04:46.680Z,6.47
2023-02-17T04:07:14.466Z,10.18
2023-02-17T04:09:43.494Z,11.27
2023-02-17T04:12:11.138Z,7.82
2023-02-17T04:14:38.877Z,9.30
2023-02-17T04:17:06.646Z,6.07
2023-02-17T04:19:34.357Z,8.02
2023-02-17T04:22:02.065Z,7.35
2023-02-17T04:24:29.841Z,9.98
2023-02-17T04:26:58.900Z,6.00
2023-02-17T04:29:26.552Z,11.05
2023-02-17T04:31:54.479Z,7.00
2023-02-17T04:34:22.837Z,6.95
2023-02-17T04:36:50.565Z,8.43
2023-02-17T04:39:18.239Z,7.43
2023-02-17T04:41:45.997Z,7.13
2023-02-17T04:44:15.976Z,9.32
2023-02-17T04:46:44.108Z,11.07
2023-02-17T04:49:12.721Z,6.47
2023-02-17T04:51:40.396Z,6.78
2023-02-17T04:54:08.092Z,5.72
2023-02-17T04:56:35.768Z,7.97
2023-02-17T04:59:03.472Z,5.38
2023-02-17T05:01:32.522Z,8.10
2023-02-17T05:04:00.245Z,4.53
2023-02-17T05:06:27.949Z,6.40
2023-02-17T05:08:55.812Z,7.63
2023-02-17T05:11:23.702Z,7.65
2023-02-17T05:13:52.183Z,6.78
2023-02-17T05:16:19.933Z,11.85
2023-02-17T05:18:49.017Z,6.00
2023-02-17T05:21:16.708Z,4.82
2023-02-17T05:23:44.366Z,7.72
2023-02-17T05:26:12.117Z,8.13
2023-02-17T05:28:41.535Z,6.07
2023-02-17T05:31:09.272Z,5.43
2023-02-17T05:33:37.001Z,5.00
2023-02-17T05:36:07.607Z,6.22
2023-02-17T05:38:35.532Z,5.25
2023-02-17T05:41:03.285Z,7.07
2023-02-17T05:43:30.983Z,6.45
2023-02-17T05:46:02.741Z,4.47
2023-02-17T05:48:30.519Z,6.80
2023-02-17T05:50:58.214Z,6.13
2023-02-17T05:53:28.222Z,6.18
2023-02-17T05:55:55.975Z,9.13
2023-02-17T05:58:23.912Z,7.70
2023-02-17T06:00:52.223Z,7.88
2023-02-17T06:03:20.945Z,11.02
2023-02-17T06:05:48.608Z,6.88
2023-02-17T06:08:16.338Z,9.57
2023-02-17T06:10:46.698Z,6.20
2023-02-17T06:13:14.400Z,8.50
2023-02-17T06:15:42.216Z,6.10
2023-02-17T06:18:09.919Z,8.80
2023-02-17T06:20:37.996Z,6.80
2023-02-17T06:23:06.190Z,6.97
2023-02-17T06:25:33.933Z,7.20
2023-02-17T06:28:03.028Z,7.00
2023-02-17T06:30:31.069Z,8.52
2023-02-17T06:32:59.851Z,7.70
2023-02-17T06:35:27.721Z,9.07
2023-02-17T06:37:55.473Z,7.28
2023-02-17T06:40:28.747Z,8.07
2023-02-17T06:42:56.730Z,9.57
2023-02-17T06:45:25.833Z,7.75
2023-02-17T06:47:53.576Z,7.38
2023-02-17T06:50:22.139Z,5.60
2023-02-17T06:52:49.795Z,9.02
2023-02-17T06:55:17.657Z,7.43
2023-02-17T06:57:45.338Z,4.43
2023-02-17T07:00:13.448Z,5.43
2023-02-17T07:02:42.560Z,6.07
2023-02-17T07:05:10.322Z,5.18
2023-02-17T07:07:38.091Z,6.97
2023-02-17T07:10:06.204Z,5.85
2023-02-17T07:12:34.618Z,5.65
2023-02-17T07:15:02.315Z,4.05
2023-02-17T07:17:30.042Z,5.85
2023-02-17T07:19:59.092Z,5.50
2023-02-17T07:22:26.977Z,3.85
2023-02-17T07:24:54.707Z,4.43
2023-02-17T07:27:22.391Z,4.05
2023-02-17T07:29:50.343Z,2.95
2023-02-17T07:32:17.988Z,4.50
2023-02-17T07:34:45.936Z,3.80
2023-02-17T07:37:15.158Z,2.17
2023-02-17T07:39:42.895Z,2.90
2023-02-17T07:42:10.556Z,2.78
2023-02-17T07:44:38.217Z,1.95
2023-02-17T07:47:06.121Z,2.95
2023-02-17T07:49:33.768Z,3.83
2023-02-17T07:52:02.991Z,2.72
2023-02-17T07:54:34.853Z,3.13
2023-02-17T07:57:02.546Z,2.58
2023-02-17T07:59:30.330Z,2.88
2023-02-17T08:01:58.046Z,2.85
2023-02-17T08:04:26.455Z,1.83
2023-02-17T08:06:54.135Z,1.98
2023-02-17T08:09:39.459Z,2.28
2023-02-17T08:12:28.558Z,2.53
2023-02-17T08:14:58.158Z,1.98
2023-02-17T08:17:25.884Z,2.22
2023-02-17T08:19:53.661Z,1.58
2023-02-17T08:22:21.386Z,1.92
2023-02-17T08:24:49.264Z,1.33
2023-02-17T08:27:18.741Z,2.30
2023-02-17T08:29:46.767Z,4.13
2023-02-17T08:32:15.064Z,2.63
2023-02-17T08:34:42.940Z,1.65
2023-02-17T08:37:11.194Z,1.27
2023-02-17T08:39:38.876Z,1.17
2023-02-17T08:42:06.913Z,2.53
2023-02-17T08:44:38.075Z,1.45
2023-02-17T08:47:06.453Z,1.65
2023-02-17T08:49:35.016Z,1.40
2023-02-17T08:52:03.261Z,0.88
2023-02-17T08:54:30.986Z,1.05
2023-02-17T08:56:58.734Z,1.40
2023-02-17T08:59:26.626Z,0.90
2023-02-17T09:01:55.774Z,1.52
2023-02-17T09:04:23.693Z,0.73
2023-02-17T09:06:52.840Z,0.70
2023-02-17T09:09:22.547Z,0.77
2023-02-17T09:11:50.673Z,0.88
2023-02-17T09:14:19.598Z,0.90
2023-02-17T09:16:47.301Z,1.70
2023-02-17T09:19:16.331Z,1.10
2023-02-17T09:21:43.969Z,2.58
2023-02-17T09:24:12.414Z,1.00
2023-02-17T09:26:40.333Z,1.75
2023-02-17T09:29:08.282Z,1.10
2023-02-17T09:31:36.699Z,0.80
2023-02-17T09:34:05.034Z,1.98
2023-02-17T09:36:35.183Z,0.70
2023-02-17T09:39:03.021Z,1.58
2023-02-17T09:41:34.067Z,1.33
2023-02-17T09:44:02.487Z,0.88
2023-02-17T09:46:31.358Z,1.63
2023-02-17T09:49:00.771Z,1.60
2023-02-17T09:51:31.581Z,0.98
2023-02-17T09:54:05.826Z,0.60
2023-02-17T09:56:35.093Z,0.70
2023-02-17T09:59:07.797Z,1.05
2023-02-17T10:01:35.732Z,1.77
2023-02-17T10:04:06.527Z,1.77
2023-02-17T10:06:36.981Z,3.13
2023-02-17T10:09:10.162Z,0.70
2023-02-17T10:11:40.954Z,0.63
2023-02-17T10:14:11.467Z,0.65
2023-02-17T10:16:41.134Z,1.65
2023-02-17T10:19:12.498Z,0.68
2023-02-17T10:21:41.782Z,1.27
2023-02-17T10:24:10.934Z,0.80
2023-02-17T10:26:47.666Z,0.80
2023-02-17T10:29:20.774Z,0.90
2023-02-17T10:31:49.764Z,0.95
2023-02-17T10:34:23.592Z,1.73
2023-02-17T10:36:55.990Z,1.10
2023-02-17T10:39:35.003Z,1.27
2023-02-17T10:42:10.843Z,1.10
2023-02-17T10:44:39.300Z,0.50
2023-02-17T10:47:10.918Z,3.50
2023-02-17T10:49:40.886Z,0.40
2023-02-17T10:52:11.760Z,0.63
2023-02-17T10:54:45.104Z,0.77
2023-02-17T10:57:13.900Z,0.50
2023-02-17T10:59:47.518Z,0.80
2023-02-17T11:02:18.101Z,0.80
2023-02-17T11:04:46.712Z,0.70
2023-02-17T11:07:16.554Z,0.98
2023-02-17T11:09:48.880Z,2.22
2023-02-17T11:12:18.077Z,1.05
2023-02-17T11:14:47.740Z,0.60
2023-02-17T11:17:17.701Z,0.47
2023-02-17T11:19:54.930Z,0.50
2023-02-17T11:22:44.168Z,0.70
2023-02-17T11:25:23.504Z,0.40
2023-02-17T11:27:52.152Z,0.95
2023-02-17T11:30:20.397Z,1.63
2023-02-17T11:32:49.704Z,0.30
2023-02-17T11:35:24.863Z,0.80
2023-02-17T11:37:52.667Z,0.40
2023-02-17T11:40:28.673Z,0.63
2023-02-17T11:42:58.084Z,2.28
2023-02-17T11:45:27.104Z,0.40
2023-02-17T11:48:05.084Z,1.25
2023-02-17T11:50:41.648Z,0.55
2023-02-17T11:53:18.999Z,1.00
2023-02-17T11:55:52.249Z,1.40
2023-02-17T11:58:26.660Z,2.28
2023-02-17T12:00:58.019Z,1.37
2023-02-17T12:03:36.865Z,1.35
2023-02-17T12:06:09.996Z,1.02
2023-02-17T12:08:45.754Z,1.63
2023-02-17T12:11:21.121Z,1.50
2023-02-17T12:13:54.835Z,1.38
2023-02-17T12:16:28.591Z,0.80
2023-02-17T12:19:01.442Z,0.32
2023-02-17T12:21:35.291Z,0.82
2023-02-17T12:24:08.460Z,0.55
2023-02-17T12:26:40.716Z,1.60
2023-02-17T12:29:15.049Z,1.33
2023-02-17T12:31:51.568Z,1.02
2023-02-17T12:34:22.596Z,1.17
2023-02-17T12:36:51.644Z,6.50
2023-02-17T12:39:21.302Z,1.25
2023-02-17T12:41:54.006Z,0.40
2023-02-17T12:44:24.428Z,1.20
2023-02-17T12:46:54.115Z,2.40
2023-02-17T12:49:24.633Z,0.50
2023-02-17T12:51:55.370Z,1.55
2023-02-17T12:54:25.801Z,0.73
2023-02-17T12:57:06.693Z,0.55
2023-02-17T12:59:35.130Z,0.22
2023-02-17T13:02:03.563Z,1.35
2023-02-17T13:04:32.561Z,1.25
2023-02-17T13:07:07.865Z,2.30
2023-02-17T13:12:19.065Z,2.28
2023-02-17T13:14:48.525Z,2.00
2023-02-17T13:17:24.421Z,0.30
2023-02-17T13:20:01.675Z,1.02
2023-02-17T13:22:29.380Z,0.52
2023-02-17T13:24:58.691Z,0.60
2023-02-17T13:27:34.508Z,0.47
2023-02-17T13:30:02.878Z,0.68
2023-02-17T13:32:31.543Z,1.55
2023-02-17T13:35:05.895Z,0.63
2023-02-17T13:37:41.210Z,1.05
2023-02-17T13:42:41.880Z,1.17
2023-02-17T13:45:14.613Z,0.57
2023-02-17T13:47:42.888Z,1.23
2023-02-17T13:50:25.495Z,1.27
2023-02-17T13:52:53.289Z,0.50
2023-02-17T13:55:21.378Z,3.30
2023-02-17T13:57:53.127Z,0.98
2023-02-17T14:00:23.046Z,2.60
2023-02-17T14:02:52.486Z,0.73
2023-02-17T14:05:21.228Z,1.85
2023-02-17T14:07:49.622Z,1.70
2023-02-17T14:10:18.981Z,3.95
2023-02-17T14:12:48.813Z,4.10
2023-02-17T14:15:18.619Z,0.75
2023-02-17T14:17:46.503Z,1.10
2023-02-17T14:20:27.239Z,0.75
2023-02-17T14:23:04.195Z,2.35
2023-02-17T14:25:33.283Z,0.50
2023-02-17T14:28:01.000Z,2.15
2023-02-17T14:30:34.165Z,4.05
2023-02-17T14:33:04.815Z,1.23
2023-02-17T14:35:35.387Z,0.52
2023-02-17T14:38:09.953Z,2.92
2023-02-17T14:40:39.962Z,0.93
2023-02-17T14:43:07.914Z,0.60
2023-02-17T14:45:36.906Z,1.98
2023-02-17T14:48:06.371Z,2.38
2023-02-17T14:50:34.197Z,0.75
2023-02-17T14:53:01.858Z,2.35
2023-02-17T14:55:33.754Z,2.38
2023-02-17T14:58:01.536Z,1.23
2023-02-17T15:00:29.224Z,1.52
2023-02-17T15:02:58.274Z,2.60
2023-02-17T15:05:26.264Z,1.55
2023-02-17T15:07:53.938Z,2.72
2023-02-17T15:10:22.966Z,5.72
2023-02-17T15:12:52.201Z,1.75
2023-02-17T15:15:20.049Z,2.85
2023-02-17T15:17:47.816Z,2.25
2023-02-17T15:20:17.314Z,1.13
2023-02-17T15:22:45.137Z,3.97
2023-02-17T15:25:14.220Z,5.03
2023-02-17T15:27:41.991Z,2.85
2023-02-17T15:30:12.445Z,1.17
2023-02-17T15:32:40.154Z,2.22
2023-02-17T15:35:16.434Z,1.65
2023-02-17T15:37:45.506Z,2.17
2023-02-17T15:40:17.394Z,2.25
2023-02-17T15:42:45.694Z,4.63
2023-02-17T15:45:15.317Z,2.70
2023-02-17T15:47:43.031Z,3.75
2023-02-17T15:50:18.167Z,1.42
2023-02-17T15:52:49.016Z,3.65
2023-02-17T15:55:17.202Z,1.20
2023-02-17T15:57:47.245Z,1.58
2023-02-17T16:00:18.286Z,2.65
2023-02-17T16:02:46.144Z,2.40
2023-02-17T16:05:15.122Z,5.32
2023-02-17T16:07:42.910Z,7.32
2023-02-17T16:10:14.582Z,1.70
2023-02-17T16:12:42.615Z,3.53
2023-02-17T16:15:16.743Z,1.23
2023-02-17T16:17:44.543Z,1.95
2023-02-17T16:20:15.090Z,2.22
2023-02-17T16:22:42.824Z,2.03
2023-02-17T16:25:12.290Z,1.42
2023-02-17T16:27:40.459Z,6.90
2023-02-17T16:30:15.835Z,1.42
2023-02-17T16:32:43.823Z,1.60
2023-02-17T16:35:14.241Z,3.72
2023-02-17T16:37:42.159Z,3.05
2023-02-17T16:40:17.480Z,3.17
2023-02-17T16:45:16.496Z,6.38
2023-02-17T16:47:48.502Z,4.70
2023-02-17T16:50:21.537Z,5.82
2023-02-17T16:52:49.265Z,4.60
2023-02-17T16:55:19.405Z,6.45
2023-02-17T16:57:47.706Z,7.35
2023-02-17T17:00:16.894Z,6.40
2023-02-17T17:02:44.698Z,7.80
2023-02-17T17:05:12.938Z,9.35
2023-02-17T17:07:41.585Z,8.02
2023-02-17T17:10:16.731Z,7.13
2023-02-17T17:12:46.577Z,8.07
2023-02-17T17:15:14.373Z,12.07
2023-02-17T17:17:44.497Z,5.95
2023-02-17T17:20:14.727Z,5.55
2023-02-17T17:22:42.481Z,7.90
2023-02-17T17:25:10.527Z,10.32
2023-02-17T17:27:38.291Z,10.00
2023-02-17T17:30:08.392Z,6.07
2023-02-17T17:32:36.171Z,6.03
2023-02-17T17:35:03.835Z,6.88
2023-02-17T17:37:31.581Z,10.85
2023-02-17T17:39:59.421Z,7.72
2023-02-17T17:42:27.385Z,8.52
2023-02-17T17:44:55.065Z,8.57
2023-02-17T17:47:29.930Z,8.13
2023-02-17T17:49:58.221Z,6.70
2023-02-17T17:52:25.949Z,6.82
2023-02-17T17:54:53.606Z,6.97
2023-02-17T17:57:22.588Z,6.20
2023-02-17T17:59:50.438Z,5.90
2023-02-17T18:02:18.152Z,8.13
2023-02-17T18:04:47.382Z,5.60
2023-02-17T18:07:15.148Z,6.07
2023-02-17T18:09:43.271Z,5.88
2023-02-17T18:12:12.038Z,9.13
2023-02-17T18:14:41.114Z,5.28
2023-02-17T18:17:09.821Z,6.68
2023-02-17T18:19:37.709Z,6.07
2023-02-17T18:22:06.846Z,3.58
2023-02-17T18:24:34.536Z,8.57
2023-02-17T18:27:02.239Z,5.22
2023-02-17T18:29:31.700Z,8.27
2023-02-17T18:32:01.634Z,8.98
2023-02-17T18:34:32.624Z,6.38
2023-02-17T18:37:00.435Z,8.90
2023-02-17T18:39:29.513Z,7.97
2023-02-17T18:41:57.231Z,5.95
2023-02-17T18:44:25.025Z,5.32
2023-02-17T18:46:52.701Z,8.52
2023-02-17T18:49:20.701Z,8.30
2023-02-17T18:51:48.604Z,7.72
2023-02-17T18:54:17.824Z,9.43
2023-02-17T18:56:51.083Z,9.10
2023-02-17T18:59:18.862Z,9.23
2023-02-17T19:01:46.853Z,11.48
2023-02-17T19:04:15.081Z,10.48
2023-02-17T19:06:42.899Z,10.23
2023-02-17T19:09:10.630Z,10.30
2023-02-17T19:11:38.412Z,11.43
2023-02-17T19:14:07.510Z,9.50
2023-02-17T19:16:35.334Z,10.20
2023-02-17T19:19:04.150Z,8.68
2023-02-17T19:21:31.849Z,9.07
2023-02-17T19:23:59.763Z,9.27
2023-02-17T19:26:27.433Z,9.07
2023-02-17T19:28:55.152Z,7.72
2023-02-17T19:31:24.423Z,9.45
2023-02-17T19:33:52.101Z,10.20
2023-02-17T19:36:21.585Z,9.35
2023-02-17T19:38:49.781Z,9.50
2023-02-17T19:41:18.104Z,8.00
2023-02-17T19:43:45.923Z,10.60
2023-02-17T19:46:14.246Z,7.63
2023-02-17T19:48:43.315Z,9.13
2023-02-17T19:51:12.384Z,5.85
2023-02-17T19:53:40.400Z,12.13
2023-02-17T19:56:11.960Z,6.28
2023-02-17T19:58:40.691Z,7.05
2023-02-17T20:01:09.215Z,7.93
2023-02-17T20:03:36.931Z,10.88
2023-02-17T20:06:07.827Z,9.90
2023-02-17T20:08:35.849Z,10.23
2023-02-17T20:11:07.709Z,8.25
2023-02-17T20:13:45.145Z,9.77
2023-02-17T20:16:15.008Z,8.73
2023-02-17T20:18:44.668Z,13.48
2023-02-17T20:21:14.549Z,7.55
2023-02-17T20:23:42.358Z,10.95
2023-02-17T20:26:10.695Z,8.23
2023-02-17T20:28:38.656Z,10.68
2023-02-17T20:31:07.003Z,9.48
2023-02-17T20:33:34.884Z,8.82
2023-02-17T20:36:02.572Z,10.75
2023-02-17T20:38:31.621Z,12.23
2023-02-17T20:40:59.674Z,11.88
2023-02-17T20:43:27.431Z,8.98
2023-02-17T20:45:55.306Z,7.35
2023-02-17T20:48:27.512Z,8.98
2023-02-17T20:50:55.351Z,6.85
2023-02-17T20:53:23.125Z,11.50
2023-02-17T20:55:52.493Z,7.47
2023-02-17T20:58:20.684Z,8.05
2023-02-17T21:00:48.542Z,8.07
2023-02-17T21:03:16.742Z,7.20
2023-02-17T21:05:44.393Z,9.25
2023-02-17T21:08:12.102Z,9.27
2023-02-17T21:10:40.907Z,9.55
2023-02-17T21:13:09.944Z,8.68
2023-02-17T21:15:37.596Z,9.40
2023-02-17T21:18:05.626Z,7.40
2023-02-17T21:20:33.376Z,7.70
2023-02-17T21:23:01.688Z,7.95
2023-02-17T21:25:29.532Z,6.70
2023-02-17T21:27:57.274Z,6.88
2023-02-17T21:30:26.432Z,6.55
2023-02-17T21:32:55.205Z,8.88
2023-02-17T21:35:22.939Z,10.20
2023-02-17T21:37:50.987Z,8.80
2023-02-17T21:40:19.149Z,7.60
2023-02-17T21:43:04.519Z,9.50
2023-02-17T21:45:37.713Z,9.15
2023-02-17T21:48:05.734Z,11.93
2023-02-17T21:50:33.476Z,9.95
2023-02-17T21:53:01.168Z,8.68
2023-02-17T21:55:28.899Z,8.40
2023-02-17T21:57:56.602Z,8.23
2023-02-17T22:00:24.318Z,11.88
2023-02-17T22:02:53.340Z,10.40
2023-02-17T22:05:21.133Z,11.75
2023-02-17T22:07:49.215Z,10.93
2023-02-17T22:10:17.228Z,10.15
2023-02-17T22:12:45.020Z,8.90
2023-02-17T22:15:14.677Z,8.45
2023-02-17T22:17:42.436Z,9.65
2023-02-17T22:20:12.111Z,12.23
2023-02-17T22:22:39.839Z,8.90
2023-02-17T22:25:07.713Z,9.25
2023-02-17T22:27:35.463Z,12.15
2023-02-17T22:30:03.182Z,13.75
2023-02-17T22:32:31.197Z,12.57
2023-02-17T22:34:58.956Z,11.07
2023-02-17T22:37:28.197Z,13.57
2023-02-17T22:39:56.236Z,12.30
2023-02-17T22:42:24.816Z,10.65
2023-02-17T22:44:52.726Z,13.02
2023-02-17T22:47:20.343Z,9.80
2023-02-17T22:49:48.413Z,11.82
2023-02-17T22:52:17.601Z,12.15
2023-02-17T22:54:47.291Z,11.52
2023-02-17T22:57:14.984Z,10.27
2023-02-17T22:59:42.643Z,10.82
2023-02-17T23:02:10.291Z,12.90
2023-02-17T23:04:38.748Z,12.48
2023-02-17T23:07:06.412Z,10.50
2023-02-17T23:09:34.128Z,13.32
2023-02-17T23:12:03.357Z,10.02
2023-02-17T23:14:33.155Z,10.68
2023-02-17T23:17:01.968Z,11.27
2023-02-17T23:19:30.131Z,10.75
2023-02-17T23:21:59.053Z,10.60
2023-02-17T23:24:27.685Z,11.10
2023-02-17T23:26:55.711Z,10.77
2023-02-17T23:29:25.240Z,11.27
2023-02-17T23:31:53.274Z,11.50
2023-02-17T23:34:22.309Z,11.80
2023-02-17T23:36:49.975Z,12.00
2023-02-17T23:39:17.898Z,8.48
2023-02-17T23:41:45.731Z,8.52
2023-02-17T23:44:14.451Z,8.65
2023-02-17T23:46:44.346Z,10.70
2023-02-17T23:49:13.916Z,9.07
2023-02-17T23:51:41.597Z,7.60
2023-02-17T23:54:09.347Z,10.00
2023-02-17T23:56:37.115Z,9.30
2023-02-17T23:59:04.920Z,9.98
